sensor_id;sensor_type;location;lat;lon;timestamp;P1;durP1;ratioP1;P2;durP2;ratioP2
20044;SDS011;10183;47.808;9.476;2023-08-17T00:00:52;7.85;;;7.45;;
20044;SDS011;10183;47.808;9.476;2023-08-17T00:03:18;7.53;;;7.22;;
20044;SDS011;10183;47.808;9.476;2023-08-17T00:05:44;6.82;;;6.53;;
20044;SDS011;10183;47.808;9.476;2023-08-17T00:08:10;6.70;;;6.40;;
20044;SDS011;10183;47.808;9.476;2023-08-17T00:10:37;6.70;;;6.40;;
20044;SDS011;10183;47.808;9.476;2023-08-17T00:13:04;6.55;;;6.25;;
20044;SDS011;10183;47.808;9.476;2023-08-17T00:15:30;6.43;;;6.13;;
20044;SDS011;10183;47.808;9.476;2023-08-17T00:17:57;5.75;;;5.55;;
20044;SDS011;10183;47.808;9.476;2023-08-17T00:20:23;6.50;;;6.20;;
20044;SDS011;10183;47.808;9.476;2023-08-17T00:22:50;6.70;;;6.40;;
20044;SDS011;10183;47.808;9.476;2023-08-17T00:25:16;5.80;;;5.60;;
20044;SDS011;10183;47.808;9.476;2023-08-17T00:27:42;6.30;;;6.00;;
20044;SDS011;10183;47.808;9.476;2023-08-17T00:30:08;6.10;;;5.90;;
20044;SDS011;10183;47.808;9.476;2023-08-17T00:32:35;6.20;;;5.90;;
20044;SDS011;10183;47.808;9.476;2023-08-17T00:35:01;6.07;;;5.88;;
20044;SDS011;10183;47.808;9.476;2023-08-17T00:37:27;5.80;;;5.60;;
20044;SDS011;10183;47.808;9.476;2023-08-17T00:39:53;5.90;;;5.70;;
20044;SDS011;10183;47.808;9.476;2023-08-17T00:42:20;5.80;;;5.60;;
20044;SDS011;10183;47.808;9.476;2023-08-17T00:44:46;5.53;;;5.32;;
20044;SDS011;10183;47.808;9.476;2023-08-17T00:47:12;6.18;;;5.90;;
20044;SDS011;10183;47.808;9.476;2023-08-17T00:49:39;6.57;;;6.28;;
20044;SDS011;10183;47.808;9.476;2023-08-17T00:52:05;6.00;;;5.80;;
20044;SDS011;10183;47.808;9.476;2023-08-17T00:54:31;5.90;;;5.70;;
20044;SDS011;10183;47.808;9.476;2023-08-17T00:56:58;6.45;;;6.15;;
20044;SDS011;10183;47.808;9.476;2023-08-17T00:59:25;6.30;;;6.00;;
20044;SDS011;10183;47.808;9.476;2023-08-17T01:01:51;5.95;;;5.75;;
20044;SDS011;10183;47.808;9.476;2023-08-17T01:04:18;5.82;;;5.63;;
20044;SDS011;10183;47.808;9.476;2023-08-17T01:06:44;5.85;;;5.65;;
20044;SDS011;10183;47.808;9.476;2023-08-17T01:09:10;5.55;;;5.35;;
20044;SDS011;10183;47.808;9.476;2023-08-17T01:11:38;5.75;;;5.55;;
20044;SDS011;10183;47.808;9.476;2023-08-17T01:14:30;6.30;;;6.03;;
20044;SDS011;10183;47.808;9.476;2023-08-17T01:17:03;5.90;;;5.70;;
20044;SDS011;10183;47.808;9.476;2023-08-17T01:19:34;6.40;;;6.10;;
20044;SDS011;10183;47.808;9.476;2023-08-17T01:22:03;7.28;;;6.97;;
20044;SDS011;10183;47.808;9.476;2023-08-17T01:24:30;6.40;;;6.10;;
20044;SDS011;10183;47.808;9.476;2023-08-17T01:26:57;6.00;;;5.80;;
20044;SDS011;10183;47.808;9.476;2023-08-17T01:29:23;5.78;;;5.57;;
20044;SDS011;10183;47.808;9.476;2023-08-17T01:34:24;5.60;;;5.40;;
20044;SDS011;10183;47.808;9.476;2023-08-17T01:36:59;5.70;;;5.50;;
20044;SDS011;10183;47.808;9.476;2023-08-17T01:39:31;5.90;;;5.70;;
20044;SDS011;10183;47.808;9.476;2023-08-17T01:42:07;5.22;;;5.03;;
20044;SDS011;10183;47.808;9.476;2023-08-17T01:44:36;5.20;;;5.00;;
20044;SDS011;10183;47.808;9.476;2023-08-17T01:47:02;5.50;;;5.30;;
20044;SDS011;10183;47.808;9.476;2023-08-17T01:49:29;5.50;;;5.30;;
20044;SDS011;10183;47.808;9.476;2023-08-17T01:51:55;5.90;;;5.70;;
20044;SDS011;10183;47.808;9.476;2023-08-17T01:54:21;5.70;;;5.50;;
20044;SDS011;10183;47.808;9.476;2023-08-17T01:56:48;5.70;;;5.50;;
20044;SDS011;10183;47.808;9.476;2023-08-17T01:59:14;5.63;;;5.43;;
20044;SDS011;10183;47.808;9.476;2023-08-17T02:01:40;5.60;;;5.40;;
20044;SDS011;10183;47.808;9.476;2023-08-17T02:04:06;5.57;;;5.38;;
20044;SDS011;10183;47.808;9.476;2023-08-17T02:06:32;5.30;;;5.10;;
20044;SDS011;10183;47.808;9.476;2023-08-17T02:08:58;5.50;;;5.30;;
20044;SDS011;10183;47.808;9.476;2023-08-17T02:11:25;5.40;;;5.20;;
20044;SDS011;10183;47.808;9.476;2023-08-17T02:13:51;5.45;;;5.25;;
20044;SDS011;10183;47.808;9.476;2023-08-17T02:16:17;5.40;;;5.20;;
20044;SDS011;10183;47.808;9.476;2023-08-17T02:18:43;5.28;;;5.07;;
20044;SDS011;10183;47.808;9.476;2023-08-17T02:21:09;5.38;;;5.18;;
20044;SDS011;10183;47.808;9.476;2023-08-17T02:23:35;5.60;;;5.40;;
20044;SDS011;10183;47.808;9.476;2023-08-17T02:26:01;5.47;;;5.28;;
20044;SDS011;10183;47.808;9.476;2023-08-17T02:28:28;5.50;;;5.30;;
20044;SDS011;10183;47.808;9.476;2023-08-17T02:30:55;5.30;;;5.10;;
20044;SDS011;10183;47.808;9.476;2023-08-17T02:33:22;5.00;;;4.80;;
20044;SDS011;10183;47.808;9.476;2023-08-17T02:35:49;5.30;;;5.10;;
20044;SDS011;10183;47.808;9.476;2023-08-17T02:38:15;5.00;;;4.80;;
20044;SDS011;10183;47.808;9.476;2023-08-17T02:40:42;4.90;;;4.70;;
20044;SDS011;10183;47.808;9.476;2023-08-17T02:43:08;4.70;;;4.50;;
20044;SDS011;10183;47.808;9.476;2023-08-17T02:45:34;4.70;;;4.50;;
20044;SDS011;10183;47.808;9.476;2023-08-17T02:48:00;4.80;;;4.60;;
20044;SDS011;10183;47.808;9.476;2023-08-17T02:50:27;4.70;;;4.50;;
20044;SDS011;10183;47.808;9.476;2023-08-17T02:52:53;4.60;;;4.40;;
20044;SDS011;10183;47.808;9.476;2023-08-17T02:55:19;4.60;;;4.40;;
20044;SDS011;10183;47.808;9.476;2023-08-17T02:57:45;4.68;;;4.47;;
20044;SDS011;10183;47.808;9.476;2023-08-17T03:00:11;4.40;;;4.20;;
20044;SDS011;10183;47.808;9.476;2023-08-17T03:02:38;4.60;;;4.40;;
20044;SDS011;10183;47.808;9.476;2023-08-17T03:05:04;7.55;;;6.95;;
20044;SDS011;10183;47.808;9.476;2023-08-17T03:07:31;4.60;;;4.40;;
20044;SDS011;10183;47.808;9.476;2023-08-17T03:09:58;4.78;;;4.57;;
20044;SDS011;10183;47.808;9.476;2023-08-17T03:12:24;4.70;;;4.50;;
20044;SDS011;10183;47.808;9.476;2023-08-17T03:14:50;4.85;;;4.65;;
20044;SDS011;10183;47.808;9.476;2023-08-17T03:17:17;5.00;;;4.80;;
20044;SDS011;10183;47.808;9.476;2023-08-17T03:19:43;5.00;;;4.80;;
20044;SDS011;10183;47.808;9.476;2023-08-17T03:22:09;4.70;;;4.50;;
20044;SDS011;10183;47.808;9.476;2023-08-17T03:24:35;4.95;;;4.75;;
20044;SDS011;10183;47.808;9.476;2023-08-17T03:27:01;4.50;;;4.30;;
20044;SDS011;10183;47.808;9.476;2023-08-17T03:29:28;4.85;;;4.65;;
20044;SDS011;10183;47.808;9.476;2023-08-17T03:31:54;4.50;;;4.30;;
20044;SDS011;10183;47.808;9.476;2023-08-17T03:34:20;4.20;;;4.07;;
20044;SDS011;10183;47.808;9.476;2023-08-17T03:36:46;2.90;;;2.80;;
20044;SDS011;10183;47.808;9.476;2023-08-17T03:39:12;4.10;;;4.00;;
20044;SDS011;10183;47.808;9.476;2023-08-17T03:41:38;4.00;;;3.90;;
20044;SDS011;10183;47.808;9.476;2023-08-17T03:44:05;4.20;;;4.10;;
20044;SDS011;10183;47.808;9.476;2023-08-17T03:46:31;4.10;;;4.00;;
20044;SDS011;10183;47.808;9.476;2023-08-17T03:48:57;4.20;;;4.10;;
20044;SDS011;10183;47.808;9.476;2023-08-17T03:51:23;4.47;;;4.28;;
20044;SDS011;10183;47.808;9.476;2023-08-17T03:53:50;4.70;;;4.50;;
20044;SDS011;10183;47.808;9.476;2023-08-17T03:56:16;5.45;;;5.25;;
20044;SDS011;10183;47.808;9.476;2023-08-17T03:58:42;5.53;;;5.32;;
20044;SDS011;10183;47.808;9.476;2023-08-17T04:01:09;5.72;;;5.53;;
20044;SDS011;10183;47.808;9.476;2023-08-17T04:03:36;5.70;;;5.50;;
20044;SDS011;10183;47.808;9.476;2023-08-17T04:06:06;6.40;;;6.10;;
20044;SDS011;10183;47.808;9.476;2023-08-17T04:08:38;6.10;;;5.90;;
20044;SDS011;10183;47.808;9.476;2023-08-17T04:11:04;5.80;;;5.60;;
20044;SDS011;10183;47.808;9.476;2023-08-17T04:13:31;5.82;;;5.63;;
20044;SDS011;10183;47.808;9.476;2023-08-17T04:15:57;12.90;;;12.10;;
20044;SDS011;10183;47.808;9.476;2023-08-17T04:18:23;11.50;;;10.80;;
20044;SDS011;10183;47.808;9.476;2023-08-17T04:20:49;11.00;;;10.30;;
20044;SDS011;10183;47.808;9.476;2023-08-17T04:23:16;12.27;;;11.57;;
20044;SDS011;10183;47.808;9.476;2023-08-17T04:25:43;11.43;;;10.73;;
20044;SDS011;10183;47.808;9.476;2023-08-17T04:28:09;12.20;;;11.50;;
20044;SDS011;10183;47.808;9.476;2023-08-17T04:30:36;15.00;;;14.10;;
20044;SDS011;10183;47.808;9.476;2023-08-17T04:33:03;15.00;;;14.10;;
20044;SDS011;10183;47.808;9.476;2023-08-17T04:35:30;13.52;;;12.73;;
20044;SDS011;10183;47.808;9.476;2023-08-17T04:37:56;8.05;;;7.65;;
20044;SDS011;10183;47.808;9.476;2023-08-17T04:40:22;8.20;;;7.80;;
20044;SDS011;10183;47.808;9.476;2023-08-17T04:42:49;8.00;;;7.60;;
20044;SDS011;10183;47.808;9.476;2023-08-17T04:45:15;8.65;;;8.25;;
20044;SDS011;10183;47.808;9.476;2023-08-17T04:47:41;9.18;;;8.77;;
20044;SDS011;10183;47.808;9.476;2023-08-17T04:50:07;9.57;;;9.10;;
20044;SDS011;10183;47.808;9.476;2023-08-17T04:52:34;9.52;;;9.10;;
20044;SDS011;10183;47.808;9.476;2023-08-17T04:55:00;11.00;;;10.40;;
20044;SDS011;10183;47.808;9.476;2023-08-17T04:57:26;12.38;;;11.77;;
20044;SDS011;10183;47.808;9.476;2023-08-17T04:59:53;11.95;;;11.35;;
20044;SDS011;10183;47.808;9.476;2023-08-17T05:02:19;12.15;;;11.55;;
20044;SDS011;10183;47.808;9.476;2023-08-17T05:04:46;14.05;;;13.27;;
20044;SDS011;10183;47.808;9.476;2023-08-17T05:07:12;15.50;;;14.68;;
20044;SDS011;10183;47.808;9.476;2023-08-17T05:09:38;17.48;;;16.58;;
20044;SDS011;10183;47.808;9.476;2023-08-17T05:12:05;15.77;;;14.88;;
20044;SDS011;10183;47.808;9.476;2023-08-17T05:14:31;17.67;;;16.77;;
20044;SDS011;10183;47.808;9.476;2023-08-17T05:16:57;18.17;;;17.27;;
20044;SDS011;10183;47.808;9.476;2023-08-17T05:19:23;15.95;;;15.15;;
20044;SDS011;10183;47.808;9.476;2023-08-17T05:21:50;17.20;;;16.30;;
20044;SDS011;10183;47.808;9.476;2023-08-17T05:24:16;15.18;;;14.38;;
20044;SDS011;10183;47.808;9.476;2023-08-17T05:26:43;14.07;;;13.35;;
20044;SDS011;10183;47.808;9.476;2023-08-17T05:29:10;15.38;;;14.57;;
20044;SDS011;10183;47.808;9.476;2023-08-17T05:31:36;13.25;;;12.55;;
20044;SDS011;10183;47.808;9.476;2023-08-17T05:34:02;16.40;;;15.50;;
20044;SDS011;10183;47.808;9.476;2023-08-17T05:36:29;14.00;;;13.23;;
20044;SDS011;10183;47.808;9.476;2023-08-17T05:38:55;18.70;;;17.63;;
20044;SDS011;10183;47.808;9.476;2023-08-17T05:41:22;17.65;;;16.65;;
20044;SDS011;10183;47.808;9.476;2023-08-17T05:43:48;20.00;;;18.77;;
20044;SDS011;10183;47.808;9.476;2023-08-17T05:46:14;23.77;;;22.38;;
20044;SDS011;10183;47.808;9.476;2023-08-17T05:48:40;22.83;;;21.52;;
20044;SDS011;10183;47.808;9.476;2023-08-17T05:51:07;19.75;;;18.55;;
20044;SDS011;10183;47.808;9.476;2023-08-17T05:53:33;19.15;;;17.95;;
20044;SDS011;10183;47.808;9.476;2023-08-17T05:55:59;20.27;;;18.98;;
20044;SDS011;10183;47.808;9.476;2023-08-17T05:58:26;21.10;;;19.80;;
20044;SDS011;10183;47.808;9.476;2023-08-17T06:00:52;20.95;;;19.65;;
20044;SDS011;10183;47.808;9.476;2023-08-17T06:03:18;23.33;;;21.92;;
20044;SDS011;10183;47.808;9.476;2023-08-17T06:05:45;25.00;;;23.50;;
20044;SDS011;10183;47.808;9.476;2023-08-17T06:08:11;26.30;;;24.70;;
20044;SDS011;10183;47.808;9.476;2023-08-17T06:10:37;27.55;;;25.75;;
20044;SDS011;10183;47.808;9.476;2023-08-17T06:13:04;30.05;;;27.85;;
20044;SDS011;10183;47.808;9.476;2023-08-17T06:15:30;27.95;;;25.95;;
20044;SDS011;10183;47.808;9.476;2023-08-17T06:17:57;28.50;;;26.40;;
20044;SDS011;10183;47.808;9.476;2023-08-17T06:20:23;34.92;;;32.33;;
20044;SDS011;10183;47.808;9.476;2023-08-17T06:22:49;33.35;;;30.85;;
20044;SDS011;10183;47.808;9.476;2023-08-17T06:25:15;33.95;;;31.35;;
20044;SDS011;10183;47.808;9.476;2023-08-17T06:27:42;33.97;;;31.27;;
20044;SDS011;10183;47.808;9.476;2023-08-17T06:30:11;35.45;;;32.65;;
20044;SDS011;10183;47.808;9.476;2023-08-17T06:32:38;34.10;;;31.50;;
20044;SDS011;10183;47.808;9.476;2023-08-17T06:35:05;34.10;;;31.50;;
20044;SDS011;10183;47.808;9.476;2023-08-17T06:37:32;32.10;;;29.70;;
20044;SDS011;10183;47.808;9.476;2023-08-17T06:39:58;33.15;;;30.75;;
20044;SDS011;10183;47.808;9.476;2023-08-17T06:42:24;33.95;;;31.35;;
20044;SDS011;10183;47.808;9.476;2023-08-17T06:44:50;33.00;;;30.42;;
20044;SDS011;10183;47.808;9.476;2023-08-17T06:47:16;34.13;;;31.42;;
20044;SDS011;10183;47.808;9.476;2023-08-17T06:49:42;30.73;;;28.33;;
20044;SDS011;10183;47.808;9.476;2023-08-17T06:52:08;35.20;;;32.28;;
20044;SDS011;10183;47.808;9.476;2023-08-17T06:54:35;31.60;;;29.00;;
20044;SDS011;10183;47.808;9.476;2023-08-17T06:57:01;38.92;;;35.67;;
20044;SDS011;10183;47.808;9.476;2023-08-17T06:59:27;34.28;;;31.38;;
20044;SDS011;10183;47.808;9.476;2023-08-17T07:01:53;38.25;;;34.95;;
20044;SDS011;10183;47.808;9.476;2023-08-17T07:04:19;37.22;;;34.03;;
20044;SDS011;10183;47.808;9.476;2023-08-17T07:06:45;28.83;;;26.52;;
20044;SDS011;10183;47.808;9.476;2023-08-17T07:09:11;36.78;;;33.67;;
20044;SDS011;10183;47.808;9.476;2023-08-17T07:11:38;33.83;;;31.05;;
20044;SDS011;10183;47.808;9.476;2023-08-17T07:14:05;28.20;;;26.20;;
20044;SDS011;10183;47.808;9.476;2023-08-17T07:16:34;28.85;;;26.75;;
20044;SDS011;10183;47.808;9.476;2023-08-17T07:19:00;28.23;;;26.13;;
20044;SDS011;10183;47.808;9.476;2023-08-17T07:21:26;27.58;;;25.58;;
20044;SDS011;10183;47.808;9.476;2023-08-17T07:23:53;35.75;;;32.78;;
20044;SDS011;10183;47.808;9.476;2023-08-17T07:26:20;37.53;;;34.33;;
20044;SDS011;10183;47.808;9.476;2023-08-17T07:28:48;37.22;;;34.08;;
20044;SDS011;10183;47.808;9.476;2023-08-17T07:31:14;43.75;;;39.55;;
20044;SDS011;10183;47.808;9.476;2023-08-17T07:33:41;38.08;;;34.78;;
20044;SDS011;10183;47.808;9.476;2023-08-17T07:36:07;43.72;;;39.53;;
20044;SDS011;10183;47.808;9.476;2023-08-17T07:38:34;40.85;;;37.05;;
20044;SDS011;10183;47.808;9.476;2023-08-17T07:41:00;39.60;;;36.00;;
20044;SDS011;10183;47.808;9.476;2023-08-17T07:43:26;37.33;;;34.08;;
20044;SDS011;10183;47.808;9.476;2023-08-17T07:46:01;40.92;;;37.35;;
20044;SDS011;10183;47.808;9.476;2023-08-17T07:48:27;35.35;;;32.30;;
20044;SDS011;10183;47.808;9.476;2023-08-17T07:50:59;43.75;;;39.83;;
20044;SDS011;10183;47.808;9.476;2023-08-17T07:53:25;41.47;;;37.13;;
20044;SDS011;10183;47.808;9.476;2023-08-17T07:55:51;46.55;;;42.05;;
20044;SDS011;10183;47.808;9.476;2023-08-17T07:58:17;48.63;;;43.78;;
20044;SDS011;10183;47.808;9.476;2023-08-17T08:00:44;43.03;;;38.95;;
20044;SDS011;10183;47.808;9.476;2023-08-17T08:03:10;46.38;;;42.03;;
20044;SDS011;10183;47.808;9.476;2023-08-17T08:05:36;40.58;;;37.08;;
20044;SDS011;10183;47.808;9.476;2023-08-17T08:08:02;30.08;;;27.80;;
20044;SDS011;10183;47.808;9.476;2023-08-17T08:10:29;29.83;;;27.63;;
20044;SDS011;10183;47.808;9.476;2023-08-17T08:12:55;36.03;;;33.13;;
20044;SDS011;10183;47.808;9.476;2023-08-17T08:15:21;36.13;;;33.03;;
20044;SDS011;10183;47.808;9.476;2023-08-17T08:17:47;48.42;;;44.10;;
20044;SDS011;10183;47.808;9.476;2023-08-17T08:20:14;44.95;;;40.78;;
20044;SDS011;10183;47.808;9.476;2023-08-17T08:22:40;46.47;;;41.65;;
20044;SDS011;10183;47.808;9.476;2023-08-17T08:25:06;32.38;;;29.67;;
20044;SDS011;10183;47.808;9.476;2023-08-17T08:27:33;37.40;;;33.97;;
20044;SDS011;10183;47.808;9.476;2023-08-17T08:29:59;44.63;;;40.72;;
20044;SDS011;10183;47.808;9.476;2023-08-17T08:32:25;44.78;;;40.67;;
20044;SDS011;10183;47.808;9.476;2023-08-17T08:34:51;44.80;;;40.90;;
20044;SDS011;10183;47.808;9.476;2023-08-17T08:37:17;35.90;;;33.00;;
20044;SDS011;10183;47.808;9.476;2023-08-17T08:39:54;39.53;;;36.15;;
20044;SDS011;10183;47.808;9.476;2023-08-17T08:42:21;41.63;;;38.03;;
20044;SDS011;10183;47.808;9.476;2023-08-17T08:44:49;37.70;;;34.38;;
20044;SDS011;10183;47.808;9.476;2023-08-17T08:47:18;33.70;;;30.80;;
20044;SDS011;10183;47.808;9.476;2023-08-17T08:49:49;43.40;;;38.72;;
20044;SDS011;10183;47.808;9.476;2023-08-17T08:52:24;39.10;;;35.13;;
20044;SDS011;10183;47.808;9.476;2023-08-17T08:55:03;39.65;;;36.25;;
20044;SDS011;10183;47.808;9.476;2023-08-17T08:57:33;50.05;;;45.22;;
20044;SDS011;10183;47.808;9.476;2023-08-17T09:00:00;47.88;;;43.30;;
20044;SDS011;10183;47.808;9.476;2023-08-17T09:02:27;57.05;;;51.05;;
20044;SDS011;10183;47.808;9.476;2023-08-17T09:04:54;59.70;;;53.20;;
20044;SDS011;10183;47.808;9.476;2023-08-17T09:07:20;62.28;;;55.42;;
20044;SDS011;10183;47.808;9.476;2023-08-17T09:09:49;55.05;;;49.35;;
20044;SDS011;10183;47.808;9.476;2023-08-17T09:12:16;57.92;;;51.60;;
20044;SDS011;10183;47.808;9.476;2023-08-17T09:14:42;51.67;;;46.58;;
20044;SDS011;10183;47.808;9.476;2023-08-17T09:17:09;49.05;;;44.15;;
20044;SDS011;10183;47.808;9.476;2023-08-17T09:19:36;47.13;;;42.55;;
20044;SDS011;10183;47.808;9.476;2023-08-17T09:22:02;56.22;;;50.15;;
20044;SDS011;10183;47.808;9.476;2023-08-17T09:24:33;64.57;;;54.83;;
20044;SDS011;10183;47.808;9.476;2023-08-17T09:27:01;51.92;;;46.63;;
20044;SDS011;10183;47.808;9.476;2023-08-17T09:29:27;45.13;;;40.60;;
20044;SDS011;10183;47.808;9.476;2023-08-17T09:31:53;60.58;;;54.38;;
20044;SDS011;10183;47.808;9.476;2023-08-17T09:34:19;52.53;;;47.20;;
20044;SDS011;10183;47.808;9.476;2023-08-17T09:36:46;63.40;;;56.63;;
20044;SDS011;10183;47.808;9.476;2023-08-17T09:39:13;58.05;;;52.45;;
20044;SDS011;10183;47.808;9.476;2023-08-17T09:41:42;52.45;;;47.22;;
20044;SDS011;10183;47.808;9.476;2023-08-17T09:44:08;52.58;;;47.40;;
20044;SDS011;10183;47.808;9.476;2023-08-17T09:46:34;49.08;;;44.47;;
20044;SDS011;10183;47.808;9.476;2023-08-17T09:49:03;31.60;;;28.80;;
20044;SDS011;10183;47.808;9.476;2023-08-17T09:51:31;55.88;;;50.13;;
20044;SDS011;10183;47.808;9.476;2023-08-17T09:53:57;67.70;;;60.60;;
20044;SDS011;10183;47.808;9.476;2023-08-17T09:56:23;60.42;;;54.42;;
20044;SDS011;10183;47.808;9.476;2023-08-17T09:58:50;62.92;;;56.30;;
20044;SDS011;10183;47.808;9.476;2023-08-17T10:01:18;65.97;;;59.60;;
20044;SDS011;10183;47.808;9.476;2023-08-17T10:03:44;47.70;;;43.20;;
20044;SDS011;10183;47.808;9.476;2023-08-17T10:06:12;68.78;;;61.72;;
20044;SDS011;10183;47.808;9.476;2023-08-17T10:08:42;61.28;;;55.20;;
20044;SDS011;10183;47.808;9.476;2023-08-17T10:11:10;65.43;;;58.85;;
20044;SDS011;10183;47.808;9.476;2023-08-17T10:13:40;58.92;;;52.60;;
20044;SDS011;10183;47.808;9.476;2023-08-17T10:16:17;57.15;;;51.75;;
20044;SDS011;10183;47.808;9.476;2023-08-17T10:19:03;52.25;;;47.25;;
20044;SDS011;10183;47.808;9.476;2023-08-17T10:21:36;51.90;;;46.80;;
20044;SDS011;10183;47.808;9.476;2023-08-17T10:24:08;54.33;;;48.85;;
20044;SDS011;10183;47.808;9.476;2023-08-17T10:26:37;58.65;;;52.95;;
20044;SDS011;10183;47.808;9.476;2023-08-17T10:29:05;66.38;;;59.90;;
20044;SDS011;10183;47.808;9.476;2023-08-17T10:31:35;58.35;;;52.85;;
20044;SDS011;10183;47.808;9.476;2023-08-17T10:34:03;63.25;;;56.50;;
20044;SDS011;10183;47.808;9.476;2023-08-17T10:36:30;57.75;;;52.22;;
20044;SDS011;10183;47.808;9.476;2023-08-17T10:41:46;60.08;;;54.20;;
20044;SDS011;10183;47.808;9.476;2023-08-17T10:44:13;54.15;;;48.80;;
20044;SDS011;10183;47.808;9.476;2023-08-17T10:46:39;54.55;;;49.15;;
20044;SDS011;10183;47.808;9.476;2023-08-17T10:49:06;53.38;;;48.08;;
20044;SDS011;10183;47.808;9.476;2023-08-17T10:52:03;55.00;;;49.60;;
20044;SDS011;10183;47.808;9.476;2023-08-17T10:54:36;52.83;;;47.70;;
20044;SDS011;10183;47.808;9.476;2023-08-17T11:00:21;53.53;;;48.13;;
20044;SDS011;10183;47.808;9.476;2023-08-17T11:02:58;52.28;;;47.38;;
20044;SDS011;10183;47.808;9.476;2023-08-17T11:05:34;53.17;;;47.92;;
20044;SDS011;10183;47.808;9.476;2023-08-17T11:08:06;52.25;;;47.15;;
20044;SDS011;10183;47.808;9.476;2023-08-17T11:10:39;51.30;;;46.20;;
20044;SDS011;10183;47.808;9.476;2023-08-17T11:13:08;55.92;;;50.08;;
20044;SDS011;10183;47.808;9.476;2023-08-17T11:15:35;48.67;;;43.90;;
20044;SDS011;10183;47.808;9.476;2023-08-17T11:18:07;48.28;;;43.58;;
20044;SDS011;10183;47.808;9.476;2023-08-17T11:20:34;46.17;;;41.50;;
20044;SDS011;10183;47.808;9.476;2023-08-17T11:23:01;45.40;;;41.20;;
20044;SDS011;10183;47.808;9.476;2023-08-17T11:25:29;50.25;;;45.67;;
20044;SDS011;10183;47.808;9.476;2023-08-17T11:27:55;47.47;;;43.13;;
20044;SDS011;10183;47.808;9.476;2023-08-17T11:30:21;46.38;;;42.17;;
20044;SDS011;10183;47.808;9.476;2023-08-17T11:32:51;47.38;;;43.03;;
20044;SDS011;10183;47.808;9.476;2023-08-17T11:35:18;47.55;;;43.05;;
20044;SDS011;10183;47.808;9.476;2023-08-17T11:37:45;56.40;;;51.03;;
20044;SDS011;10183;47.808;9.476;2023-08-17T11:40:11;53.40;;;48.50;;
20044;SDS011;10183;47.808;9.476;2023-08-17T11:42:38;48.95;;;44.50;;
20044;SDS011;10183;47.808;9.476;2023-08-17T11:45:04;55.30;;;49.97;;
20044;SDS011;10183;47.808;9.476;2023-08-17T11:47:34;41.72;;;37.75;;
20044;SDS011;10183;47.808;9.476;2023-08-17T11:50:02;41.40;;;37.60;;
20044;SDS011;10183;47.808;9.476;2023-08-17T11:52:28;36.95;;;33.45;;
20044;SDS011;10183;47.808;9.476;2023-08-17T11:54:56;39.88;;;36.28;;
20044;SDS011;10183;47.808;9.476;2023-08-17T11:57:22;33.88;;;30.70;;
20044;SDS011;10183;47.808;9.476;2023-08-17T11:59:48;61.15;;;34.10;;
20044;SDS011;10183;47.808;9.476;2023-08-17T12:02:17;41.75;;;37.88;;
20044;SDS011;10183;47.808;9.476;2023-08-17T12:04:44;41.17;;;37.28;;
20044;SDS011;10183;47.808;9.476;2023-08-17T12:07:10;41.85;;;37.85;;
20044;SDS011;10183;47.808;9.476;2023-08-17T12:09:36;43.50;;;39.53;;
20044;SDS011;10183;47.808;9.476;2023-08-17T12:12:03;44.83;;;40.55;;
20044;SDS011;10183;47.808;9.476;2023-08-17T12:14:30;44.65;;;40.60;;
20044;SDS011;10183;47.808;9.476;2023-08-17T12:16:56;49.90;;;44.83;;
20044;SDS011;10183;47.808;9.476;2023-08-17T12:19:25;48.60;;;43.63;;
20044;SDS011;10183;47.808;9.476;2023-08-17T12:21:51;52.10;;;47.17;;
20044;SDS011;10183;47.808;9.476;2023-08-17T12:24:18;44.05;;;40.10;;
20044;SDS011;10183;47.808;9.476;2023-08-17T12:26:45;48.83;;;44.38;;
20044;SDS011;10183;47.808;9.476;2023-08-17T12:29:12;48.97;;;44.42;;
20044;SDS011;10183;47.808;9.476;2023-08-17T12:31:39;50.15;;;45.35;;
20044;SDS011;10183;47.808;9.476;2023-08-17T12:34:05;47.75;;;43.38;;
20044;SDS011;10183;47.808;9.476;2023-08-17T12:36:34;51.10;;;46.20;;
20044;SDS011;10183;47.808;9.476;2023-08-17T12:39:03;52.47;;;46.97;;
20044;SDS011;10183;47.808;9.476;2023-08-17T12:41:30;43.80;;;39.53;;
20044;SDS011;10183;47.808;9.476;2023-08-17T12:43:56;50.58;;;44.38;;
20044;SDS011;10183;47.808;9.476;2023-08-17T12:46:24;52.92;;;48.03;;
20044;SDS011;10183;47.808;9.476;2023-08-17T12:48:51;48.90;;;44.30;;
20044;SDS011;10183;47.808;9.476;2023-08-17T12:51:17;43.15;;;39.03;;
20044;SDS011;10183;47.808;9.476;2023-08-17T12:53:43;48.47;;;43.95;;
20044;SDS011;10183;47.808;9.476;2023-08-17T12:56:09;47.60;;;43.20;;
20044;SDS011;10183;47.808;9.476;2023-08-17T12:58:36;37.35;;;33.95;;
20044;SDS011;10183;47.808;9.476;2023-08-17T13:01:02;51.33;;;46.35;;
20044;SDS011;10183;47.808;9.476;2023-08-17T13:03:28;50.58;;;45.72;;
20044;SDS011;10183;47.808;9.476;2023-08-17T13:05:55;42.88;;;38.97;;
20044;SDS011;10183;47.808;9.476;2023-08-17T13:08:21;44.60;;;40.50;;
20044;SDS011;10183;47.808;9.476;2023-08-17T13:10:47;45.20;;;41.15;;
20044;SDS011;10183;47.808;9.476;2023-08-17T13:13:13;45.40;;;41.30;;
20044;SDS011;10183;47.808;9.476;2023-08-17T13:15:39;43.30;;;39.35;;
20044;SDS011;10183;47.808;9.476;2023-08-17T13:18:07;46.45;;;42.15;;
20044;SDS011;10183;47.808;9.476;2023-08-17T13:20:33;45.22;;;41.00;;
20044;SDS011;10183;47.808;9.476;2023-08-17T13:22:59;45.72;;;41.45;;
20044;SDS011;10183;47.808;9.476;2023-08-17T13:25:26;45.47;;;41.17;;
20044;SDS011;10183;47.808;9.476;2023-08-17T13:27:52;47.05;;;41.85;;
20044;SDS011;10183;47.808;9.476;2023-08-17T13:30:18;49.20;;;44.80;;
20044;SDS011;10183;47.808;9.476;2023-08-17T13:32:44;49.60;;;45.10;;
20044;SDS011;10183;47.808;9.476;2023-08-17T13:35:11;53.55;;;48.63;;
20044;SDS011;10183;47.808;9.476;2023-08-17T13:37:37;45.47;;;41.38;;
20044;SDS011;10183;47.808;9.476;2023-08-17T13:40:03;48.03;;;43.53;;
20044;SDS011;10183;47.808;9.476;2023-08-17T13:42:30;47.78;;;43.17;;
20044;SDS011;10183;47.808;9.476;2023-08-17T13:44:56;39.60;;;35.90;;
20044;SDS011;10183;47.808;9.476;2023-08-17T13:47:22;38.65;;;35.08;;
20044;SDS011;10183;47.808;9.476;2023-08-17T13:49:49;34.95;;;31.75;;
20044;SDS011;10183;47.808;9.476;2023-08-17T13:52:15;35.85;;;32.50;;
20044;SDS011;10183;47.808;9.476;2023-08-17T13:54:41;33.67;;;30.58;;
20044;SDS011;10183;47.808;9.476;2023-08-17T13:57:07;36.45;;;32.95;;
20044;SDS011;10183;47.808;9.476;2023-08-17T13:59:33;41.97;;;38.05;;
20044;SDS011;10183;47.808;9.476;2023-08-17T14:02:00;37.40;;;33.78;;
20044;SDS011;10183;47.808;9.476;2023-08-17T14:04:26;34.05;;;30.95;;
20044;SDS011;10183;47.808;9.476;2023-08-17T14:06:52;35.67;;;32.42;;
20044;SDS011;10183;47.808;9.476;2023-08-17T14:09:18;43.05;;;39.15;;
20044;SDS011;10183;47.808;9.476;2023-08-17T14:11:45;47.97;;;43.55;;
20044;SDS011;10183;47.808;9.476;2023-08-17T14:14:11;49.05;;;44.55;;
20044;SDS011;10183;47.808;9.476;2023-08-17T14:16:37;48.85;;;44.35;;
20044;SDS011;10183;47.808;9.476;2023-08-17T14:19:04;48.85;;;44.33;;
20044;SDS011;10183;47.808;9.476;2023-08-17T14:21:30;45.90;;;41.72;;
20044;SDS011;10183;47.808;9.476;2023-08-17T14:23:57;47.33;;;42.92;;
20044;SDS011;10183;47.808;9.476;2023-08-17T14:26:25;48.63;;;44.03;;
20044;SDS011;10183;47.808;9.476;2023-08-17T14:28:54;48.03;;;43.42;;
20044;SDS011;10183;47.808;9.476;2023-08-17T14:31:20;42.88;;;38.88;;
20044;SDS011;10183;47.808;9.476;2023-08-17T14:33:48;44.33;;;40.22;;
20044;SDS011;10183;47.808;9.476;2023-08-17T14:36:15;42.53;;;38.65;;